createdAt,value
2022-12-26T00:01:13.607Z,19.45
2022-12-26T00:03:41.260Z,20.00
2022-12-26T00:06:16.900Z,25.02
2022-12-26T00:08:45.299Z,15.58
2022-12-26T00:11:14.263Z,14.87
2022-12-26T00:13:42.005Z,19.95
2022-12-26T00:16:15.560Z,16.45
2022-12-26T00:18:46.478Z,15.75
2022-12-26T00:21:15.753Z,12.90
2022-12-26T00:23:44.614Z,12.75
2022-12-26T00:26:19.371Z,16.60
2022-12-26T00:28:47.020Z,21.55
2022-12-26T00:31:25.325Z,18.75
2022-12-26T00:33:52.973Z,16.40
2022-12-26T00:36:24.571Z,17.25
2022-12-26T00:38:52.243Z,30.43
2022-12-26T00:41:21.286Z,27.85
2022-12-26T00:43:49.743Z,25.25
2022-12-26T00:46:18.825Z,25.48
2022-12-26T00:48:46.742Z,26.00
2022-12-26T00:51:15.390Z,27.25
2022-12-26T00:53:43.124Z,38.80
2022-12-26T00:56:11.082Z,36.93
2022-12-26T00:58:41.649Z,39.23
2022-12-26T01:01:16.892Z,41.42
2022-12-26T01:03:46.169Z,42.75
2022-12-26T01:06:14.793Z,40.43
2022-12-26T01:08:43.236Z,29.67
2022-12-26T01:11:14.155Z,30.15
2022-12-26T01:13:42.862Z,29.00
2022-12-26T01:16:10.480Z,29.32
2022-12-26T01:18:38.037Z,25.85
2022-12-26T01:21:09.642Z,27.05
2022-12-26T01:23:37.236Z,27.00
2022-12-26T01:26:18.022Z,31.42
2022-12-26T01:28:36.149Z,23.80
2022-12-26T01:31:06.156Z,20.62
2022-12-26T01:33:34.099Z,20.05
2022-12-26T01:36:01.530Z,21.87
2022-12-26T01:38:29.379Z,30.12
2022-12-26T01:41:19.172Z,28.65
2022-12-26T01:44:08.846Z,28.75
2022-12-26T01:46:47.687Z,22.13
2022-12-26T01:49:29.513Z,16.45
2022-12-26T01:52:13.210Z,14.45
2022-12-26T01:54:50.553Z,14.78
2022-12-26T01:57:28.914Z,15.03
2022-12-26T02:00:11.174Z,14.93
2022-12-26T02:03:09.652Z,16.53
2022-12-26T02:05:44.015Z,24.85
2022-12-26T02:08:19.044Z,21.97
2022-12-26T02:11:18.379Z,32.35
2022-12-26T02:13:46.163Z,22.90
2022-12-26T02:16:17.327Z,18.12
2022-12-26T02:18:45.931Z,16.12
2022-12-26T02:21:54.117Z,16.48
2022-12-26T02:25:02.443Z,15.68
2022-12-26T02:28:00.979Z,13.13
2022-12-26T02:30:46.313Z,13.38
2022-12-26T02:33:28.571Z,14.05
2022-12-26T02:36:13.583Z,18.10
2022-12-26T02:39:44.411Z,19.95
2022-12-26T02:42:06.770Z,16.90
2022-12-26T02:45:04.283Z,18.35
2022-12-26T02:48:15.246Z,21.07
2022-12-26T02:51:53.889Z,17.15
2022-12-26T02:54:58.127Z,14.78
2022-12-26T02:57:56.627Z,12.58
2022-12-26T03:00:47.351Z,12.10
2022-12-26T03:03:44.575Z,11.80
2022-12-26T03:06:46.128Z,11.55
2022-12-26T03:09:44.899Z,13.28
2022-12-26T03:13:02.740Z,28.45
2022-12-26T03:15:37.002Z,18.57
2022-12-26T03:18:08.290Z,18.52
2022-12-26T03:20:38.182Z,15.30
2022-12-26T03:23:13.431Z,13.28
2022-12-26T03:26:04.423Z,13.45
2022-12-26T03:28:32.213Z,13.08
2022-12-26T03:31:07.785Z,14.38
2022-12-26T03:33:58.349Z,13.75
2022-12-26T03:36:57.224Z,13.35
2022-12-26T03:39:55.230Z,14.47
2022-12-26T03:42:49.515Z,15.00
2022-12-26T03:46:16.868Z,15.00
2022-12-26T03:49:23.909Z,18.35
2022-12-26T03:52:49.293Z,16.93
2022-12-26T03:56:13.561Z,15.20
2022-12-26T03:59:17.969Z,16.45
2022-12-26T04:02:06.147Z,13.65
2022-12-26T04:04:56.233Z,15.03
2022-12-26T04:07:56.715Z,17.98
2022-12-26T04:11:08.228Z,20.37
2022-12-26T04:14:26.332Z,20.05
2022-12-26T04:17:23.132Z,20.32
2022-12-26T04:20:08.014Z,18.77
2022-12-26T04:23:13.698Z,21.97
2022-12-26T04:26:33.993Z,21.95
2022-12-26T04:29:20.122Z,25.75
2022-12-26T04:32:14.622Z,26.10
2022-12-26T04:35:23.026Z,43.02
2022-12-26T04:38:11.144Z,21.42
2022-12-26T04:41:02.690Z,19.95
2022-12-26T04:43:51.749Z,19.73
2022-12-26T04:46:22.818Z,18.35
2022-12-26T04:49:14.483Z,17.15
2022-12-26T04:51:41.899Z,17.00
2022-12-26T04:54:09.660Z,16.87
2022-12-26T04:56:40.296Z,15.90
2022-12-26T04:59:07.970Z,14.73
2022-12-26T05:01:54.151Z,14.53
2022-12-26T05:04:40.310Z,13.85
2022-12-26T05:07:36.338Z,12.07
2022-12-26T05:10:06.300Z,12.40
2022-12-26T05:12:34.273Z,17.07
2022-12-26T05:15:01.787Z,14.43
2022-12-26T05:17:48.200Z,14.25
2022-12-26T05:20:34.454Z,16.23
2022-12-26T05:23:21.777Z,16.87
2022-12-26T05:26:07.524Z,16.35
2022-12-26T05:28:41.331Z,15.15
2022-12-26T05:31:15.823Z,17.48
2022-12-26T05:34:03.358Z,14.78
2022-12-26T05:36:47.264Z,13.43
2022-12-26T05:39:14.703Z,14.58
2022-12-26T05:41:43.098Z,14.83
2022-12-26T05:44:11.401Z,20.50
2022-12-26T05:46:41.980Z,20.85
2022-12-26T05:49:10.274Z,34.98
2022-12-26T05:51:38.278Z,18.85
2022-12-26T05:54:06.097Z,13.45
2022-12-26T05:56:34.181Z,12.30
2022-12-26T05:59:02.028Z,11.97
2022-12-26T06:01:30.549Z,10.88
2022-12-26T06:03:59.976Z,14.65
2022-12-26T06:06:28.752Z,16.65
2022-12-26T06:08:57.011Z,20.15
2022-12-26T06:11:26.013Z,22.37
2022-12-26T06:13:55.137Z,27.73
2022-12-26T06:16:23.187Z,24.82
2022-12-26T06:18:50.793Z,24.63
2022-12-26T06:21:20.163Z,21.12
2022-12-26T06:23:49.345Z,22.27
2022-12-26T06:26:17.828Z,20.08
2022-12-26T06:28:46.671Z,34.43
2022-12-26T06:31:20.217Z,33.95
2022-12-26T06:36:21.023Z,24.55
2022-12-26T06:38:49.218Z,24.55
2022-12-26T06:41:19.397Z,28.55
2022-12-26T06:43:47.229Z,32.93
2022-12-26T06:46:19.319Z,31.23
2022-12-26T06:48:47.148Z,25.15
2022-12-26T06:51:24.672Z,24.07
2022-12-26T06:53:53.158Z,23.47
2022-12-26T06:56:24.865Z,23.47
2022-12-26T06:59:02.659Z,24.07
2022-12-26T07:01:33.844Z,29.90
2022-12-26T07:04:03.729Z,30.68
2022-12-26T07:06:37.436Z,22.00
2022-12-26T07:09:09.339Z,20.72
2022-12-26T07:11:41.211Z,23.05
2022-12-26T07:14:09.464Z,26.60
2022-12-26T07:16:39.242Z,26.07
2022-12-26T07:19:07.794Z,27.58
2022-12-26T07:21:40.471Z,25.82
2022-12-26T07:24:07.377Z,24.95
2022-12-26T07:26:34.861Z,25.72
2022-12-26T07:29:02.595Z,14.35
2022-12-26T07:31:30.449Z,10.53
2022-12-26T07:33:58.239Z,10.25
2022-12-26T07:36:26.591Z,12.03
2022-12-26T07:38:54.156Z,14.43
2022-12-26T07:41:40.699Z,17.67
2022-12-26T07:44:11.358Z,18.00
2022-12-26T07:46:39.534Z,15.23
2022-12-26T07:49:08.042Z,16.00
2022-12-26T07:51:35.729Z,16.97
2022-12-26T07:54:09.076Z,17.27
2022-12-26T07:56:33.002Z,18.12
2022-12-26T07:59:00.820Z,17.23
2022-12-26T08:01:28.426Z,16.73
2022-12-26T08:03:56.272Z,31.17
2022-12-26T08:06:23.875Z,38.17
2022-12-26T08:08:51.858Z,44.42
2022-12-26T08:11:22.767Z,43.75
2022-12-26T08:13:51.857Z,40.48
2022-12-26T08:16:20.555Z,33.18
2022-12-26T08:18:48.405Z,19.98
2022-12-26T08:21:16.382Z,20.48
2022-12-26T08:23:44.783Z,18.98
2022-12-26T08:26:15.388Z,18.45
2022-12-26T08:28:42.958Z,16.87
2022-12-26T08:31:13.694Z,16.05
2022-12-26T08:33:41.806Z,15.50
2022-12-26T08:36:12.469Z,14.78
2022-12-26T08:38:40.376Z,16.73
2022-12-26T08:41:08.458Z,19.45
2022-12-26T08:44:24.521Z,16.85
2022-12-26T08:46:11.595Z,21.57
2022-12-26T08:48:41.347Z,23.22
2022-12-26T08:51:16.494Z,20.12
2022-12-26T08:53:45.992Z,21.42
2022-12-26T08:56:20.438Z,26.73
2022-12-26T08:58:48.647Z,25.90
2022-12-26T09:01:20.710Z,25.57
2022-12-26T09:03:53.440Z,23.45
2022-12-26T09:06:21.567Z,26.50
2022-12-26T09:08:49.151Z,30.90
2022-12-26T09:11:25.411Z,31.93
2022-12-26T09:13:54.257Z,29.23
2022-12-26T09:16:29.565Z,29.32
2022-12-26T09:19:00.921Z,27.25
2022-12-26T09:21:29.783Z,24.85
2022-12-26T09:24:03.621Z,19.82
2022-12-26T09:26:31.797Z,18.30
2022-12-26T09:28:59.785Z,18.67
2022-12-26T09:31:31.426Z,18.10
2022-12-26T09:34:03.638Z,17.35
2022-12-26T09:36:37.653Z,18.37
2022-12-26T09:39:06.332Z,15.10
2022-12-26T09:41:57.411Z,15.78
2022-12-26T09:44:42.776Z,16.87
2022-12-26T09:47:37.309Z,17.27
2022-12-26T09:50:13.201Z,15.95
2022-12-26T09:52:52.517Z,16.75
2022-12-26T09:55:56.152Z,19.10
2022-12-26T09:58:47.630Z,21.93
2022-12-26T10:01:26.540Z,24.27
2022-12-26T10:03:57.347Z,30.12
2022-12-26T10:06:38.731Z,26.40
2022-12-26T10:09:42.567Z,21.70
2022-12-26T10:12:38.505Z,20.90
2022-12-26T10:15:44.966Z,19.00
2022-12-26T10:18:21.245Z,19.45
2022-12-26T10:21:18.745Z,17.75
2022-12-26T10:24:13.278Z,18.98
2022-12-26T10:26:45.939Z,18.85
2022-12-26T10:29:27.678Z,19.63
2022-12-26T10:32:14.915Z,17.50
2022-12-26T10:34:46.205Z,17.48
2022-12-26T10:37:39.110Z,15.83
2022-12-26T10:40:23.996Z,16.42
2022-12-26T10:42:58.989Z,16.90
2022-12-26T10:45:44.827Z,19.15
2022-12-26T10:48:16.968Z,15.98
2022-12-26T10:50:48.424Z,14.83
2022-12-26T10:53:16.998Z,15.30
2022-12-26T10:55:44.938Z,12.80
2022-12-26T10:58:29.846Z,14.83
2022-12-26T11:01:17.646Z,13.10
2022-12-26T11:03:55.810Z,12.10
2022-12-26T11:06:28.811Z,14.53
2022-12-26T11:08:57.119Z,16.57
2022-12-26T11:11:47.244Z,21.23
2022-12-26T11:14:40.222Z,19.23
2022-12-26T11:17:29.892Z,15.95
2022-12-26T11:20:18.140Z,14.18
2022-12-26T11:22:46.797Z,19.25
2022-12-26T11:25:22.452Z,19.55
2022-12-26T11:27:57.055Z,19.92
2022-12-26T11:30:31.881Z,22.52
2022-12-26T11:33:25.955Z,20.75
2022-12-26T11:36:10.817Z,18.15
2022-12-26T11:38:58.636Z,16.00
2022-12-26T11:41:38.262Z,15.25
2022-12-26T11:44:19.110Z,15.28
2022-12-26T11:47:16.070Z,15.45
2022-12-26T11:50:00.527Z,15.60
2022-12-26T11:52:42.080Z,17.27
2022-12-26T11:55:30.636Z,16.42
2022-12-26T11:58:20.513Z,13.68
2022-12-26T12:01:02.440Z,13.35
2022-12-26T12:03:49.613Z,12.47
2022-12-26T12:06:54.653Z,13.48
2022-12-26T12:09:39.740Z,10.93
2022-12-26T12:12:31.030Z,10.72
2022-12-26T12:15:12.813Z,12.13
2022-12-26T12:18:04.059Z,10.60
2022-12-26T12:20:58.294Z,9.55
2022-12-26T12:24:09.380Z,9.55
2022-12-26T12:26:54.872Z,8.83
2022-12-26T12:29:31.783Z,8.73
2022-12-26T12:32:35.220Z,9.10
2022-12-26T12:35:37.041Z,9.48
2022-12-26T12:38:43.495Z,12.65
2022-12-26T12:41:40.761Z,12.85
2022-12-26T12:44:22.541Z,10.90
2022-12-26T12:47:07.820Z,11.75
2022-12-26T12:49:59.277Z,11.48
2022-12-26T12:53:02.760Z,12.07
2022-12-26T12:55:35.874Z,11.10
2022-12-26T12:58:27.099Z,12.13
2022-12-26T13:01:06.395Z,12.45
2022-12-26T13:03:42.309Z,12.05
2022-12-26T13:06:21.261Z,13.53
2022-12-26T13:08:57.495Z,15.80
2022-12-26T13:11:42.999Z,27.77
2022-12-26T13:14:24.832Z,16.35
2022-12-26T13:17:12.897Z,16.62
2022-12-26T13:20:11.161Z,12.93
2022-12-26T13:23:11.251Z,12.07
2022-12-26T13:25:50.208Z,11.97
2022-12-26T13:28:22.876Z,12.65
2022-12-26T13:30:55.076Z,15.78
2022-12-26T13:33:23.178Z,15.90
2022-12-26T13:35:58.342Z,12.37
2022-12-26T13:38:53.865Z,11.55
2022-12-26T13:41:36.797Z,14.60
2022-12-26T13:44:12.036Z,19.95
2022-12-26T13:46:47.798Z,23.12
2022-12-26T13:49:36.538Z,16.05
2022-12-26T13:52:24.841Z,17.30
2022-12-26T13:54:58.223Z,16.93
2022-12-26T13:57:38.181Z,19.48
2022-12-26T14:00:14.398Z,18.05
2022-12-26T14:03:20.235Z,18.02
2022-12-26T14:06:17.199Z,14.25
2022-12-26T14:09:20.860Z,16.85
2022-12-26T14:12:21.691Z,15.50
2022-12-26T14:15:14.247Z,14.30
2022-12-26T14:18:20.329Z,14.10
2022-12-26T14:21:16.277Z,14.03
2022-12-26T14:24:10.044Z,13.22
2022-12-26T14:27:10.644Z,12.88
2022-12-26T14:30:16.197Z,14.15
2022-12-26T14:33:10.634Z,13.18
2022-12-26T14:35:55.007Z,15.70
2022-12-26T14:38:58.985Z,12.53
2022-12-26T14:41:45.745Z,13.98
2022-12-26T14:44:27.810Z,12.78
2022-12-26T14:46:59.639Z,12.55
2022-12-26T14:49:36.437Z,13.55
2022-12-26T14:52:29.416Z,13.95
2022-12-26T14:54:57.312Z,14.50
2022-12-26T14:57:45.880Z,14.68
2022-12-26T15:00:24.788Z,13.80
2022-12-26T15:03:03.973Z,16.70
2022-12-26T15:05:41.420Z,27.07
2022-12-26T15:08:20.788Z,28.17
2022-12-26T15:11:10.714Z,22.62
2022-12-26T15:13:46.909Z,24.85
2022-12-26T15:16:43.913Z,18.52
2022-12-26T15:19:58.243Z,18.35
2022-12-26T15:22:54.377Z,12.07
2022-12-26T15:25:51.975Z,13.95
2022-12-26T15:28:53.917Z,17.25
2022-12-26T15:31:30.910Z,20.05
2022-12-26T15:34:29.900Z,19.67
2022-12-26T15:37:28.012Z,18.85
2022-12-26T15:40:17.879Z,22.02
2022-12-26T15:43:26.169Z,23.65
2022-12-26T15:46:16.322Z,27.40
2022-12-26T15:49:11.551Z,26.05
2022-12-26T15:51:55.562Z,26.37
2022-12-26T15:55:03.461Z,29.25
2022-12-26T15:58:06.598Z,27.93
2022-12-26T16:00:53.864Z,38.23
2022-12-26T16:03:45.315Z,32.30
2022-12-26T16:06:27.568Z,31.65
2022-12-26T16:09:13.194Z,46.58
2022-12-26T16:11:57.236Z,41.25
2022-12-26T16:14:32.648Z,46.95
2022-12-26T16:17:17.448Z,30.48
2022-12-26T16:19:48.793Z,38.48
2022-12-26T16:22:48.917Z,39.25
2022-12-26T16:25:21.944Z,46.53
2022-12-26T16:30:25.116Z,43.35
2022-12-26T16:32:53.955Z,42.85
2022-12-26T16:35:37.846Z,40.50
2022-12-26T16:40:48.238Z,40.85
2022-12-26T16:43:26.177Z,40.08
2022-12-26T16:45:59.815Z,42.00
2022-12-26T16:48:30.717Z,40.67
2022-12-26T16:51:01.709Z,37.35
2022-12-26T16:53:40.772Z,30.82
2022-12-26T16:56:33.472Z,29.60
2022-12-26T16:59:17.569Z,28.90
2022-12-26T17:01:52.840Z,35.25
2022-12-26T17:04:27.113Z,31.25
2022-12-26T17:07:07.392Z,33.50
2022-12-26T17:09:45.354Z,32.35
2022-12-26T17:12:32.180Z,31.85
2022-12-26T17:15:01.801Z,27.65
2022-12-26T17:17:38.302Z,28.17
2022-12-26T17:20:29.526Z,31.30
2022-12-26T17:22:57.263Z,29.07
2022-12-26T17:25:32.892Z,22.60
2022-12-26T17:28:18.040Z,23.15
2022-12-26T17:30:48.177Z,20.27
2022-12-26T17:33:27.990Z,19.17
2022-12-26T17:38:34.044Z,22.60
2022-12-26T17:41:04.805Z,24.02
2022-12-26T17:43:38.723Z,26.55
2022-12-26T17:46:09.697Z,30.40
2022-12-26T17:48:36.986Z,32.63
2022-12-26T17:51:08.346Z,29.07
2022-12-26T17:53:40.265Z,25.48
2022-12-26T17:56:15.316Z,22.70
2022-12-26T17:58:43.604Z,23.62
2022-12-26T18:01:15.974Z,24.40
2022-12-26T18:03:41.174Z,23.60
2022-12-26T18:06:13.909Z,21.73
2022-12-26T18:08:41.688Z,20.85
2022-12-26T18:11:12.825Z,18.77
2022-12-26T18:13:40.884Z,21.68
2022-12-26T18:16:15.745Z,23.25
2022-12-26T18:18:45.946Z,22.80
2022-12-26T18:21:16.779Z,27.15
2022-12-26T18:23:45.274Z,28.75
2022-12-26T18:26:26.969Z,26.80
2022-12-26T18:28:54.871Z,27.52
2022-12-26T18:31:22.660Z,27.37
2022-12-26T18:33:50.543Z,29.45
2022-12-26T18:36:19.717Z,31.20
2022-12-26T18:38:47.359Z,33.78
2022-12-26T18:41:18.007Z,34.45
2022-12-26T18:43:46.316Z,34.95
2022-12-26T18:46:19.863Z,36.17
2022-12-26T18:48:48.100Z,38.80
2022-12-26T18:51:16.135Z,32.55
2022-12-26T18:53:43.869Z,28.92
2022-12-26T18:56:20.864Z,29.77
2022-12-26T18:58:57.097Z,23.25
2022-12-26T19:01:20.253Z,23.22
2022-12-26T19:03:48.213Z,26.70
2022-12-26T19:06:26.771Z,30.32
2022-12-26T19:08:54.751Z,26.52
2022-12-26T19:11:23.211Z,22.50
2022-12-26T19:13:50.667Z,23.38
2022-12-26T19:16:18.532Z,23.80
2022-12-26T19:18:46.098Z,23.90
2022-12-26T19:21:15.712Z,23.80
2022-12-26T19:23:48.128Z,27.27
2022-12-26T19:26:18.296Z,32.60
2022-12-26T19:28:51.906Z,32.50
2022-12-26T19:31:20.816Z,29.05
2022-12-26T19:33:49.051Z,30.82
2022-12-26T19:36:17.092Z,32.93
2022-12-26T19:38:44.531Z,33.63
2022-12-26T19:41:14.309Z,31.90
2022-12-26T19:43:42.397Z,31.37
2022-12-26T19:46:17.059Z,32.33
2022-12-26T19:48:44.659Z,30.08
2022-12-26T19:51:14.866Z,30.23
2022-12-26T19:53:43.989Z,30.30
2022-12-26T19:56:15.910Z,32.58
2022-12-26T19:58:44.098Z,31.30
2022-12-26T20:01:19.433Z,31.25
2022-12-26T20:03:47.135Z,26.95
2022-12-26T20:06:21.797Z,26.52
2022-12-26T20:08:50.575Z,25.72
2022-12-26T20:11:22.879Z,27.45
2022-12-26T20:13:51.373Z,25.72
2022-12-26T20:17:03.439Z,33.38
2022-12-26T20:18:54.106Z,35.83
2022-12-26T20:21:23.223Z,32.03
2022-12-26T20:23:51.107Z,30.88
2022-12-26T20:26:22.340Z,29.48
2022-12-26T20:28:50.642Z,30.37
2022-12-26T20:31:21.153Z,32.58
2022-12-26T20:33:51.134Z,29.35
2022-12-26T20:36:23.311Z,31.40
2022-12-26T20:38:53.916Z,37.40
2022-12-26T20:41:22.071Z,38.83
2022-12-26T20:43:50.754Z,35.78
2022-12-26T20:46:25.658Z,42.35
2022-12-26T20:48:54.019Z,54.77
2022-12-26T20:51:25.083Z,46.30
2022-12-26T20:53:53.419Z,41.92
2022-12-26T20:56:21.199Z,25.23
2022-12-26T20:58:48.624Z,27.70
2022-12-26T21:01:22.051Z,28.80
2022-12-26T21:03:53.719Z,28.90
2022-12-26T21:06:25.988Z,30.75
2022-12-26T21:08:55.140Z,32.50
2022-12-26T21:11:30.094Z,32.35
2022-12-26T21:14:02.141Z,32.40
2022-12-26T21:16:34.638Z,29.75
2022-12-26T21:19:03.344Z,44.58
2022-12-26T21:21:34.692Z,25.77
2022-12-26T21:24:07.033Z,30.85
2022-12-26T21:26:36.885Z,24.77
2022-12-26T21:29:08.591Z,26.25
2022-12-26T21:31:37.575Z,26.33
2022-12-26T21:34:06.081Z,27.42
2022-12-26T21:36:34.809Z,29.42
2022-12-26T21:39:08.386Z,34.85
2022-12-26T21:44:06.225Z,30.75
2022-12-26T21:46:34.902Z,30.43
2022-12-26T21:49:02.433Z,27.65
2022-12-26T21:51:31.605Z,26.93
2022-12-26T21:54:01.071Z,27.60
2022-12-26T21:56:28.466Z,35.60
2022-12-26T21:59:14.560Z,36.25
2022-12-26T22:01:42.381Z,38.58
2022-12-26T22:04:22.808Z,37.93
2022-12-26T22:06:51.498Z,33.18
2022-12-26T22:09:19.242Z,33.80
2022-12-26T22:12:06.263Z,38.63
2022-12-26T22:14:33.869Z,41.13
2022-12-26T22:17:01.415Z,43.30
2022-12-26T22:19:29.084Z,47.08
2022-12-26T22:21:56.799Z,46.33
2022-12-26T22:24:24.576Z,44.35
2022-12-26T22:26:52.698Z,39.45
2022-12-26T22:29:20.252Z,33.63
2022-12-26T22:31:47.957Z,35.63
2022-12-26T22:34:16.354Z,34.33
2022-12-26T22:36:44.007Z,34.78
2022-12-26T22:39:17.007Z,34.80
2022-12-26T22:41:45.745Z,33.02
2022-12-26T22:44:14.346Z,30.12
2022-12-26T22:46:42.374Z,26.65
2022-12-26T22:49:10.269Z,29.70
2022-12-26T22:51:38.022Z,27.93
2022-12-26T22:54:05.713Z,29.07
2022-12-26T22:56:33.812Z,27.90
2022-12-26T22:59:02.683Z,26.95
2022-12-26T23:01:30.946Z,26.12
2022-12-26T23:04:01.105Z,21.45
2022-12-26T23:06:35.452Z,22.85
2022-12-26T23:09:07.264Z,24.05
2022-12-26T23:11:35.863Z,22.93
2022-12-26T23:14:06.958Z,23.70
2022-12-26T23:16:51.076Z,24.00
2022-12-26T23:19:42.540Z,20.82
2022-12-26T23:22:10.583Z,18.20
2022-12-26T23:24:38.255Z,18.90
2022-12-26T23:27:27.338Z,17.52
2022-12-26T23:30:13.655Z,15.00
2022-12-26T23:32:44.032Z,15.98
2022-12-26T23:35:12.355Z,14.65
2022-12-26T23:37:40.958Z,13.62
2022-12-26T23:40:12.652Z,13.55
2022-12-26T23:42:40.306Z,14.30
2022-12-26T23:45:10.555Z,14.75
2022-12-26T23:47:41.758Z,14.95
2022-12-26T23:50:13.426Z,11.38
2022-12-26T23:52:41.364Z,11.90
2022-12-26T23:55:10.859Z,12.75
2022-12-26T23:57:38.504Z,10.65
